KNUQ/NUQ METAR and TAF weather

Enter ICAO airport designator
Station Type Date Time Source
KNUQ METAR 2019/05/27 09:56 UTC NOAA

KNUQ 270956Z AUTO 24003KT 10SM SCT034 12/08 A3002 RMK AO2 SLP166 T01220078


Station Type Date Time Source
KNUQ Decoded METAR 2019/05/27 09:56 UTC NOAA

MOFFETT FIELD, CA, United States (KNUQ) 37-26N 122-03W 19M
May 27, 2019 - 05:56 AM EDT / 2019.05.27 0956 UTC
Wind: from the WSW (240 degrees) at 3 MPH (3 KT):0
Visibility: 10 mile(s):0
Sky conditions: partly cloudy
Temperature: 54.0 F (12.2 C)
Dew Point: 46.0 F (7.8 C)
Relative Humidity: 74%
Pressure (altimeter): 30.02 in. Hg (1016 hPa)
ob: KNUQ 270956Z AUTO 24003KT 10SM SCT034 12/08 A3002 RMK AO2 SLP166 T01220078
cycle: 10

Station Type Date Time Source
KNUQ TAF 2018/01/28 15:27 UTC NOAA

TAF COR KNUQ 2815/2915 14012G22KT 9999 SCT020 BKN035 BKN050 BKN120 650509 651406 540009 540909 QNH3017INS
TEMPO 2816/2822 14018G30KT 8000 -SHRA BKN015 OVC030
FM282200 14020G32KT 9999 SCT020 BKN050 BKN120 650509 651406 540009 540909 QNH3009INS
TEMPO 2909/2915 8000 -SHRA BKN015 OVC040 T08/2915Z T12/2922Z COR 1523 FS30085

Example: see airport list